Tiempo atmosférico en la estación meteorológica de Agulo, Santa Cruz de Tenerife (765 m.)



Fecha
DESCASC
Temp. máxima en grados centígrados (hora)
DESCASC
Temp. mínima en grados centígrados (hora)
DESCASC
Temp. media en grados centígrados
DESCASC
Racha de viento máxima en m/sg (hora)
DESCASC
Velocidad máxima media en intervalos de 10 minutos(hora)
DESCASC
Precipitaciones diarias en mm
DESCASC
Precipitaciones de 00:00 a 06:00 en mm
DESCASC
Precipitaciones de 06:00 a 12:00 en mm
DESCASC
Precipitaciones de 12:00 a 18:00 en mm
DESCASC
Precipitaciones de 18:00 a 24:00 en mm
DESCASC
18-08-2019 31.9 (18:10) 19.3 (02:30) 25.6 9.17 (09:20) 3.89 (09:20) 0 0 0 0 0
17-08-2019 32.9 (18:00) 19.5 (04:50) 26.2 8.06 (01:10) 3.61 (22:00) 0 0 0 0 0
16-08-2019 27 (16:40) 16.5 (07:30) 21.8 7.22 (23:59) 3.33 (23:59) 0 0 0 0 0
15-08-2019 22.4 (16:00) 15 (00:00) 18.7 6.67 (16:50) 2.5 (15:10) 0 0 0 0 0
14-08-2019 21.8 (14:50) 15.1 (00:00) 18.4 5 (10:40) 2.22 (13:40) 0 0 0 0 0
13-08-2019 19.8 (15:30) 15.4 (00:00) 17.6 6.67 (00:20) 2.5 (11:20) 0 0 0 0 0
12-08-2019 20.6 (15:10) 16 (00:00) 18.3 8.33 (05:20) 2.78 (07:50) 0 0 0 0 0
11-08-2019 19.5 (14:10) 16.4 (00:00) 17.9 7.22 (17:00) 2.5 (04:50) 2.2 0 1.8 0.4 0
10-08-2019 25.1 (16:00) 17 (00:00) 21.1 5 (17:20) 3.33 (02:10) 0 0 0 0 0
09-08-2019 30.5 (13:30) 16.9 (00:00) 23.7 5 (00:20) 3.89 (00:20) 0 0 0 0 0
08-08-2019 26.9 (16:50) 14.7 (00:00) 20.8 5 (11:30) 2.78 (14:50) 0 0 0 0 0
07-08-2019 22.8 (16:30) 15.8 (00:00) 19.3 6.11 (13:40) 2.78 (16:40) 0 0 0 0 0
06-08-2019 22.8 (15:00) 15.5 (00:00) 19.1 6.67 (10:00) 2.78 (23:40) 0 0 0 0 0
05-08-2019 22.2 (15:10) 15.9 (00:00) 19.1 8.33 (15:10) 2.5 (16:20) 0 0 0 0 0
04-08-2019 22.8 (15:00) 14.9 (00:00) 18.8 6.94 (14:50) 2.5 (02:50) 0 0 0 0 0
03-08-2019 20.7 (17:30) 15.2 (00:00) 18 6.39 (07:20) 2.5 (07:20) 0 0 0 0 0
02-08-2019 20.2 (15:10) 14.9 (00:00) 17.6 7.22 (15:10) 3.61 (16:10) 0 0 0 0 0
01-08-2019 22.1 (16:50) 14.1 (00:00) 18.1 6.67 (10:00) 3.06 (12:00) 0 0 0 0 0
31-07-2019 19.6 (15:20) 13.4 (00:00) 16.5 7.22 (01:50) 2.78 (04:00) 0 0 0 0 0
30-07-2019 17.3 (06:30) 14.8 (00:00) 16 9.44 (10:40) 3.06 (07:20) 0.6 0 0.4 0.2 0
29-07-2019 20.4 (16:10) 15.1 (00:00) 17.8 6.11 (11:20) 2.22 (11:00) 0 0 0 0 0
28-07-2019 20.4 (15:00) 15.2 (00:00) 17.8 5.83 (11:00) 2.22 (06:50) 1 0.8 0.2 0 0
27-07-2019 18.1 (15:30) 15.4 (00:00) 16.8 7.22 (02:20) 2.5 (02:20) 0 0 0 0 0
26-07-2019 20.2 (15:50) 16.1 (00:00) 18.2 6.39 (03:00) 2.22 (23:10) 0 0 0 0 0
25-07-2019 26.7 (15:20) 15.3 (00:00) 21 7.78 (11:30) 2.78 (09:20) 0 0 0 0 0
24-07-2019 24.2 (15:30) 14.4 (00:00) 19.3 6.39 (23:00) 2.78 (23:00) 0 0 0 0 0
23-07-2019 19.6 (14:30) 14.4 (00:00) 17 5.28 (20:30) 2.5 (13:50) 0 0 0 0 0
22-07-2019 21.5 (14:50) 14.8 (00:00) 18.2 6.11 (15:50) 2.22 (09:30) 0 0 0 0 0
21-07-2019 18.8 (14:50) 15.2 (00:00) 17 5.28 (00:10) 2.5 (22:30) 0.2 0 0 0.2 0

Gráficas

Temp. máximas Temp. mínimas Temp. medias Precipitaciones Rachas de viento máximas Velocidades máximas media en intervalos de 10 minutos

Datos horarios

Fecha y hora oficial Temperatura (ºC) Velocidad del viento (km/h) Dirección del viento Racha (km/h) Dirección de racha Precipitación (mm) Presión (hPa) Tendencia (hPa) Humedad (%)
2019-08-19 23:00:00 19.5 2 Este 13 Sudoeste 0 -- -- 80
2019-08-19 22:00:00 25.1 7 Sudoeste 15 Sudoeste 0 -- -- 21
2019-08-19 21:00:00 25.7 3 Sur 12 Sudeste 0 -- -- 24
2019-08-19 20:00:00 28.5 4 Sudeste 15 Este 0 -- -- 21
2019-08-19 19:00:00 30.8 4 Sudeste 15 Este 0 -- -- 21
2019-08-19 18:00:00 32.4 3 Sudeste 10 Noroeste 0 -- -- 27
2019-08-19 17:00:00 34 5 Sur 14 Sur 0 -- -- 20
2019-08-19 16:00:00 35.2 7 Sur 16 Nordeste 0 -- -- 16
2019-08-19 15:00:00 33.9 5 Sudeste 16 Sudeste 0 -- -- 18
2019-08-19 14:00:00 33.9 7 Sur 14 Sur 0 -- -- 18
2019-08-19 13:00:00 32.4 7 Sudeste 19 Sudeste 0 -- -- 18
2019-08-19 12:00:00 31.4 6 Sudeste 18 Sudeste 0 -- -- 21
2019-08-19 11:00:00 29.6 7 Sur 19 Sudeste 0 -- -- 18
2019-08-19 10:00:00 29.1 11 Sudeste 26 Sudeste 0 -- -- 20
2019-08-19 09:00:00 25.4 14 Sudeste 27 Este 0 -- -- 21
2019-08-19 08:00:00 23.3 9 Sudeste 25 Sudoeste 0 -- -- 20
2019-08-19 07:00:00 22.9 11 Este 28 Sudeste 0 -- -- 13
2019-08-19 06:00:00 22.6 10 Sudeste 26 Sudeste 0 -- -- 26
2019-08-19 05:00:00 21.9 10 Sudeste 22 Este 0 -- -- 26
2019-08-19 04:00:00 22.3 9 Sudoeste 24 Este 0 -- -- 26
2019-08-19 03:00:00 22.5 8 Sudoeste 24 Sudeste 0 -- -- 27
2019-08-19 02:00:00 23.5 12 Este 35 Este 0 -- -- 24
2019-08-19 01:00:00 23.5 8 Sudeste 32 Sur 0 -- -- 22
2019-08-19 00:00:00 23.4 7 Sur 27 Sudeste 0 -- -- 30
2019-08-18 23:00:00 24 10 Sur 29 Este 0 -- -- 29
2019-08-18 22:00:00 23.3 7 Sudeste 18 Sudeste 0 -- -- 33
2019-08-18 21:00:00 24.4 8 Este 21 Este 0 -- -- 30
2019-08-18 20:00:00 26.6 7 Noroeste 21 Este 0 -- -- 30
2019-08-18 19:00:00 30.4 5 Este 19 Este 0 -- -- 26
2019-08-18 18:00:00 31.8 8 Sudeste 21 Este 0 -- -- 28
2019-08-18 17:00:00 30.9 4 Sudoeste 13 Norte 0 -- -- 43
2019-08-18 16:00:00 31 4 Oeste 12 Nordeste 0 -- -- 48
2019-08-18 15:00:00 31.2 4 Sudoeste 13 Este 0 -- -- 46
2019-08-18 14:00:00 30.8 5 Sudeste 17 Sudeste 0 -- -- 32
2019-08-18 13:00:00 31.4 4 Sudeste 23 Nordeste 0 -- -- 33
2019-08-18 12:00:00 29.2 8 Sur 23 Este 0 -- -- 34
2019-08-18 11:00:00 26.9 4 Sudoeste 22 Sudeste 0 -- -- 34
2019-08-18 10:00:00 25.9 8 Sudeste 33 Nordeste 0 -- -- 34
2019-08-18 09:00:00 23.3 7 Sudeste 31 Sudeste 0 -- -- 38
2019-08-18 08:00:00 22.2 8 Nordeste 26 Sudoeste 0 -- -- 43
2019-08-18 07:00:00 22.9 12 Sudoeste 24 Sudoeste 0 -- -- 38
2019-08-18 06:00:00 21.6 7 Sudoeste 22 Este 0 -- -- 51
2019-08-18 05:00:00 21.8 9 Sudeste 28 Sudeste 0 -- -- 49
2019-08-18 04:00:00 20.9 6 Este 28 Sudeste 0 -- -- 58
2019-08-18 03:00:00 20.2 9 Sudoeste 27 Oeste 0 -- -- 63
2019-08-18 02:00:00 20.8 11 Sudeste 32 Este 0 -- -- 67
2019-08-18 01:00:00 20.9 7 Oeste 27 Nordeste 0 -- -- 61
2019-08-18 00:00:00 22.5 12 Sur 27 Sudoeste 0 -- -- 54
2019-08-17 23:00:00 23.2 9 Sudeste 28 Este 0 -- -- 48
2019-08-17 22:00:00 24.3 13 Sudeste 28 Este 0 -- -- 45
2019-08-17 21:00:00 27.5 6 Sudeste 27 Nordeste 0 -- -- 29
2019-08-17 20:00:00 28.7 4 Sudeste 22 Sudeste 0 -- -- 33
2019-08-17 19:00:00 31.4 5 Este 13 Oeste 0 -- -- 28
2019-08-17 18:00:00 32.9 5 Sur 25 Sudeste 0 -- -- 23
2019-08-17 17:00:00 32.3 7 Sudeste 23 Este 0 -- -- 26
2019-08-17 16:00:00 32 4 Sur 9 Sudoeste 0 -- -- 38
2019-08-17 15:00:00 30.9 4 Sudoeste 9 Sur 0 -- -- 48
2019-08-17 14:00:00 31 4 Sur 10 Sur 0 -- -- 49
2019-08-17 13:00:00 29.6 4 Sur 13 Este 0 -- -- 53
2019-08-17 12:00:00 29.2 5 Sur 21 Este 0 -- -- 38
2019-08-17 11:00:00 27.8 6 Sudeste 15 Este 0 -- -- 40
2019-08-17 10:00:00 25.1 3 Sudeste 15 Este 0 -- -- 54
2019-08-17 09:00:00 23.8 5 Sudeste 15 Este 0 -- -- 48
2019-08-17 08:00:00 21.3 7 Sudeste 23 Sudeste 0 -- -- 53
2019-08-17 07:00:00 20.7 6 Sur 24 Este 0 -- -- 60
2019-08-17 06:00:00 21.7 6 Sudoeste 21 Sudoeste 0 -- -- 46
2019-08-17 05:00:00 20.2 6 Este 19 Sudoeste 0 -- -- 69
2019-08-17 04:00:00 20.1 4 Este 15 Nordeste 0 -- -- 72
2019-08-17 03:00:00 21.9 7 Sudeste 21 Sudoeste 0 -- -- 48
2019-08-17 02:00:00 22 7 Sur 29 Sudeste 0 -- -- 49
2019-08-17 01:00:00 21.3 6 Sur 23 Sur 0 -- -- 61
2019-08-17 00:00:00 22 12 Sudeste 26 Nordeste 0 -- -- 58
2019-08-16 23:00:00 20.6 6 Sur 25 Este 0 -- -- 67
2019-08-16 22:00:00 20.3 6 Este 19 Sudoeste 0 -- -- 74
2019-08-16 21:00:00 18.7 5 Nordeste 10 Este 0 -- -- 92
2019-08-16 20:00:00 19.9 5 Norte 12 Norte 0 -- -- 93
2019-08-16 19:00:00 20.6 5 Norte 11 Nordeste 0 -- -- 90
2019-08-16 18:00:00 23.8 5 Nordeste 13 Este 0 -- -- 75
2019-08-16 17:00:00 26.6 4 Sur 12 Oeste 0 -- -- 64
2019-08-16 16:00:00 26.4 4 Sur 14 Sur 0 -- -- 66
2019-08-16 15:00:00 25.1 4 Noroeste 12 Sur 0 -- -- 70
2019-08-16 14:00:00 25.3 4 Sur 16 Este 0 -- -- 68
2019-08-16 13:00:00 23.3 6 Este 14 Sudeste 0 -- -- 74
2019-08-16 12:00:00 22.5 5 Sur 13 Este 0 -- -- 76
2019-08-16 11:00:00 18.7 4 Nordeste 13 Nordeste 0 -- -- 92
2019-08-16 10:00:00 17.5 2 Este 8 Sudeste 0 -- -- 98
2019-08-16 09:00:00 16.9 4 Este 14 Nordeste 0 -- -- 99
2019-08-16 08:00:00 16.5 4 Sudoeste 17 Nordeste 0 -- -- 99
2019-08-16 07:00:00 16.7 4 Sur 13 Sur 0 -- -- 99
2019-08-16 06:00:00 16.8 5 Sur 13 Sur 0 -- -- 99
2019-08-16 05:00:00 16.8 3 Este 12 Nordeste 0 -- -- 98
2019-08-16 04:00:00 16.9 3 Sudeste 9 Este 0 -- -- 98
2019-08-16 03:00:00 17.1 4 Sudeste 12 Nordeste 0 -- -- 98
2019-08-16 02:00:00 17.3 3 Sur 12 Este 0 -- -- 98
2019-08-16 01:00:00 17.3 4 Este 12 Sudeste 0 -- -- 97
2019-08-16 00:00:00 17.5 3 Sudoeste 15 Este 0 -- -- 96
2019-08-15 23:00:00 17.5 4 Este 14 Este 0 -- -- 96
2019-08-15 22:00:00 17.5 3 Sur 9 Nordeste 0 -- -- 95
2019-08-15 21:00:00 17.5 4 Sudeste 15 Norte 0 -- -- 94
2019-08-15 20:00:00 18 5 Norte 15 Nordeste 0 -- -- 92
2019-08-15 19:00:00 18.7 4 Este 10 Nordeste 0 -- -- 89
2019-08-15 18:00:00 20.3 5 Noroeste 19 Norte 0 -- -- 82
2019-08-15 17:00:00 21.4 7 Norte 24 Norte 0 -- -- 77
2019-08-15 16:00:00 22.4 5 Norte 17 Norte 0 -- -- 74
2019-08-15 15:00:00 21.5 6 Norte 17 Norte 0 -- -- 75
2019-08-15 14:00:00 21.3 4 Nordeste 17 Norte 0 -- -- 76
2019-08-15 13:00:00 21 7 Nordeste 13 Este 0 -- -- 74
2019-08-15 12:00:00 19.8 5 Nordeste 14 Sudeste 0 -- -- 78
2019-08-15 11:00:00 18.6 4 Oeste 14 Norte 0 -- -- 87
2019-08-15 10:00:00 17.3 4 Este 11 Noroeste 0 -- -- 91
2019-08-15 09:00:00 15.9 3 Sudoeste 12 Este 0 -- -- 94
2019-08-15 08:00:00 15.1 3 Este 15 Norte 0 -- -- 96
2019-08-15 07:00:00 15.2 3 Sudoeste 10 Este 0 -- -- 95
2019-08-15 06:00:00 15.3 3 Este 9 Norte 0 -- -- 95
2019-08-15 05:00:00 15.6 3 Sur 10 Noroeste 0 -- -- 95
2019-08-15 04:00:00 15.7 3 Nordeste 10 Nordeste 0 -- -- 96
2019-08-15 03:00:00 15.9 3 Este 11 Sur 0 -- -- 96
2019-08-15 02:00:00 15.9 4 Sudeste 10 Sudeste 0 -- -- 95
2019-08-15 01:00:00 15.8 3 Sudoeste 9 Nordeste 0 -- -- 92
2019-08-15 00:00:00 16.2 4 Sudeste 12 Este 0 -- -- 96
2019-08-14 23:00:00 16.5 3 Sudeste 12 Norte 0 -- -- 95
2019-08-14 22:00:00 16.6 4 Nordeste 18 Nordeste 0 -- -- 95
2019-08-14 21:00:00 16.9 3 Sudeste 12 Nordeste 0 -- -- 93
2019-08-14 20:00:00 17.4 3 Nordeste 9 Este 0 -- -- 89
2019-08-14 19:00:00 18.1 4 Este 12 Este 0 -- -- 87
2019-08-14 18:00:00 19.3 3 Este 14 Oeste 0 -- -- 82
2019-08-14 17:00:00 20.7 5 Noroeste 17 Norte 0 -- -- 77
2019-08-14 16:00:00 21.1 6 Este 18 Norte 0 -- -- 74
2019-08-14 15:00:00 21.3 5 Sudeste 17 Nordeste 0 -- -- 74
2019-08-14 14:00:00 19.9 7 Este 17 Sudeste 0 -- -- 78
2019-08-14 13:00:00 19.6 5 Sur 15 Este 0 -- -- 78
2019-08-14 12:00:00 18 4 Sudeste 13 Este 0 -- -- 89
2019-08-14 11:00:00 17.1 4 Sudeste 18 Nordeste 0 -- -- 94
2019-08-14 10:00:00 16.2 4 Sur 10 Este 0 -- -- 96
2019-08-14 09:00:00 15.7 5 Sudeste 13 Sudeste 0 -- -- 98
2019-08-14 08:00:00 15.3 3 Sudoeste 11 Nordeste 0 -- -- 98
2019-08-14 07:00:00 15.1 3 Sur 9 Sudoeste 0 -- -- 97
2019-08-14 06:00:00 15.1 5 Sudoeste 14 Este 0 -- -- 98
2019-08-14 05:00:00 15.4 4 Sudoeste 12 Oeste 0 -- -- 99
2019-08-14 04:00:00 15.4 4 Sur 10 Este 0 -- -- 99
2019-08-14 03:00:00 15.5 4 Sur 14 Nordeste 0 -- -- 99
2019-08-14 02:00:00 15.6 4 Sudeste 13 Sudeste 0 -- -- 99
2019-08-14 01:00:00 15.7 3 Sudeste 14 Este 0 -- -- 98
2019-08-14 00:00:00 16.1 5 Sudeste 13 Nordeste 0 -- -- 99
2019-08-13 23:00:00 16 4 Sudeste 15 Este 0 -- -- 98
2019-08-13 22:00:00 16.1 6 Sudeste 17 Este 0 -- -- 98
2019-08-13 21:00:00 16.3 4 Sur 15 Sudeste 0 -- -- 96
2019-08-13 20:00:00 16.7 6 Sur 19 Sur 0 -- -- 95
2019-08-13 19:00:00 17.3 7 Sur 17 Sudeste 0 -- -- 93
2019-08-13 18:00:00 18.4 6 Sur 18 Sudeste 0 -- -- 87
2019-08-13 17:00:00 19 6 Sur 20 Sudeste 0 -- -- 86
2019-08-13 16:00:00 19.3 6 Sur 19 Sudeste 0 -- -- 83
2019-08-13 15:00:00 19.4 5 Sudeste 18 Sur 0 -- -- 85
2019-08-13 14:00:00 19.6 4 Sudeste 17 Nordeste 0 -- -- 84
2019-08-13 13:00:00 18.9 7 Sudeste 17 Sur 0 -- -- 87
2019-08-13 12:00:00 18.5 4 Oeste 18 Nordeste 0 -- -- 90
2019-08-13 11:00:00 17.4 8 Este 18 Sudeste 0 -- -- 94
2019-08-13 10:00:00 16.5 5 Sudeste 19 Este 0 -- -- 100
2019-08-13 09:00:00 15.9 6 Sudeste 22 Este 0 -- -- 100
2019-08-13 08:00:00 15.7 5 Sur 18 Este 0 -- -- 100
2019-08-13 07:00:00 15.4 8 Este 18 Nordeste 0 -- -- 100
2019-08-13 06:00:00 15.7 5 Sur 16 Este 0 -- -- 100
2019-08-13 05:00:00 16 5 Sur 19 Sudeste 0 -- -- 100
2019-08-13 04:00:00 15.9 6 Sudeste 20 Nordeste 0 -- -- 100
2019-08-13 03:00:00 15.9 6 Este 22 Este 0 -- -- 100
2019-08-13 02:00:00 15.9 5 Sudeste 20 Nordeste 0 -- -- 100
2019-08-13 01:00:00 16.1 6 Sudeste 24 Sudeste 0 -- -- 99
2019-08-13 00:00:00 16.3 7 Este 17 Este 0 -- -- 99
2019-08-12 23:00:00 16.2 6 Sudeste 21 Nordeste 0 -- -- 98
2019-08-12 22:00:00 16.5 7 Este 19 Sudeste 0 -- -- 98
2019-08-12 21:00:00 16.7 5 Sudeste 17 Sudeste 0 -- -- 97
2019-08-12 20:00:00 17.2 5 Sudeste 13 Sudeste 0 -- -- 92
2019-08-12 19:00:00 18.1 3 Norte 15 Noroeste 0 -- -- 90
2019-08-12 18:00:00 18.4 6 Sudoeste 15 Sur 0 -- -- 88
2019-08-12 17:00:00 19.4 6 Sudeste 20 Este 0 -- -- 86
2019-08-12 16:00:00 20.4 8 Sudeste 17 Sudeste 0 -- -- 80
2019-08-12 15:00:00 20.5 6 Sudeste 15 Sudeste 0 -- -- 83
2019-08-12 14:00:00 19.9 6 Este 18 Nordeste 0 -- -- 84
2019-08-12 13:00:00 19.3 7 Sudeste 21 Nordeste 0 -- -- 90
2019-08-12 12:00:00 18.2 8 Sudeste 22 Este 0 -- -- 99
2019-08-12 11:00:00 17.1 10 Sudeste 24 Nordeste 0 -- -- 100
2019-08-12 10:00:00 16.8 6 Sur 19 Nordeste 0 -- -- 100
2019-08-12 09:00:00 16.4 7 Nordeste 19 Nordeste 0 -- -- 100
2019-08-12 08:00:00 16.2 6 Sudeste 30 Sudeste 0 -- -- 100
2019-08-12 07:00:00 16.4 8 Sudeste 27 Este 0 -- -- 100
2019-08-12 06:00:00 16.3 8 Sudeste 30 Sudeste 0 -- -- 100
2019-08-12 05:00:00 16.3 5 Sudeste 26 Nordeste 0 -- -- 100
2019-08-12 04:00:00 16.4 9 Este 24 Nordeste 0 -- -- 100
2019-08-12 03:00:00 16.2 8 Este 26 Nordeste 0 -- -- 100
2019-08-12 02:00:00 16.3 9 Sudeste 30 Este 0 -- -- 100
2019-08-12 01:00:00 16.4 8 Este 19 Nordeste 0 -- -- 100
2019-08-12 00:00:00 16.5 4 Sur 16 Oeste 0 -- -- 100
2019-08-11 23:00:00 16.5 5 Sudoeste 19 Sudoeste 0 -- -- 100
2019-08-11 22:00:00 16.5 5 Sur 15 Norte 0 -- -- 100
2019-08-11 21:00:00 16.8 5 Sur 17 Sur 0 -- -- 100
2019-08-11 20:00:00 17 6 Sudeste 24 Este 0 -- -- 99
2019-08-11 19:00:00 17.5 6 Sudeste 21 Norte 0 -- -- 99
2019-08-11 18:00:00 17.7 5 Este 24 Nordeste 0 -- -- 98
2019-08-11 17:00:00 18.2 6 Sur 26 Noroeste 0 -- -- 98
2019-08-11 16:00:00 18.9 6 Sur 22 Nordeste 0 -- -- 98
2019-08-11 15:00:00 19.3 6 Este 18 Este 0 -- -- 98
2019-08-11 14:00:00 19.4 5 Sudeste 17 Sudeste 0 -- -- 100
2019-08-11 13:00:00 19.1 6 Sudeste 22 Sudeste 0.4 -- -- 100
2019-08-11 12:00:00 19.3 6 Sudeste 18 Sudeste 0.4 -- -- 100
2019-08-11 11:00:00 19.1 6 Sudeste 18 Sudeste 1.2 -- -- 100
2019-08-11 10:00:00 18.9 4 Sudoeste 21 Este 0 -- -- 100
2019-08-11 09:00:00 18.1 9 Este 23 Este 0 -- -- 100
2019-08-11 08:00:00 18.1 6 Este 20 Este 0.2 -- -- 100
2019-08-11 07:00:00 18.3 6 Sudeste 19 Nordeste 0 -- -- 100
2019-08-11 06:00:00 18.1 6 Este 23 Este 0 -- -- 99
2019-08-11 05:00:00 17.9 7 Sudeste 24 Sudeste 0 -- -- 99
2019-08-11 04:00:00 17.7 6 Sudeste 26 Sudeste 0 -- -- 99
2019-08-11 03:00:00 17.8 6 Este 20 Nordeste 0 -- -- 98
2019-08-11 02:00:00 17.9 5 Este 18 Este 0 -- -- 98
2019-08-11 01:00:00 18.2 6 Sudeste 14 Este 0 -- -- 97
2019-08-11 00:00:00 18.7 3 Sudeste 17 Este 0 -- -- 95
2019-08-10 23:00:00 18.9 3 Sudoeste 10 Sudeste 0 -- -- 92
2019-08-10 22:00:00 18.9 3 Sudoeste 9 Sur 0 -- -- 91
2019-08-10 21:00:00 19.3 2 Sudeste 11 Sudeste 0 -- -- 90
2019-08-10 20:00:00 20.2 4 Sur 13 Sudeste 0 -- -- 87
2019-08-10 19:00:00 22.5 4 Este 14 Noroeste 0 -- -- 76
2019-08-10 18:00:00 23.5 5 Norte 18 Sudeste 0 -- -- 73
2019-08-10 17:00:00 23.9 6 Sudeste 15 Este 0 -- -- 71
2019-08-10 16:00:00 25.1 6 Sudeste 15 Sudeste 0 -- -- 68
2019-08-10 15:00:00 23.8 5 Nordeste 13 Sur 0 -- -- 68
2019-08-10 14:00:00 23.1 7 Sudeste 17 Este 0 -- -- 73
2019-08-10 13:00:00 22.6 4 Sur 18 Sur 0 -- -- 76
2019-08-10 12:00:00 23.4 8 Sudeste 15 Este 0 -- -- 71
2019-08-10 11:00:00 24.7 6 Sudeste 12 Sudeste 0 -- -- 65
2019-08-10 10:00:00 23.7 4 Sur 12 Sudoeste 0 -- -- 37
2019-08-10 09:00:00 21 5 Sudoeste 16 Sudoeste 0 -- -- 34
2019-08-10 08:00:00 17.4 4 Sudoeste 9 Oeste 0 -- -- 59
2019-08-10 07:00:00 17.4 3 Sur 11 Sudoeste 0 -- -- 90
2019-08-10 06:00:00 17.5 3 Sudoeste 9 Nordeste 0 -- -- 91
2019-08-10 05:00:00 17.7 4 Sudeste 13 Este 0 -- -- 92
2019-08-10 04:00:00 17.7 5 Sur 14 Nordeste 0 -- -- 87
2019-08-10 03:00:00 17.9 5 Sur 16 Este 0 -- -- 80
2019-08-10 02:00:00 18.5 5 Este 10 Este 0 -- -- 62
2019-08-10 01:00:00 19.5 6 Este 9 Este 0 -- -- 48
2019-08-10 00:00:00 20.7 5 Sur 15 Este 0 -- -- 36
2019-08-09 23:00:00 21.2 8 Este 13 Este 0 -- -- 51
2019-08-09 22:00:00 21.1 5 Sur 9 Sudoeste 0 -- -- 41
2019-08-09 21:00:00 21.7 4 Sur 9 Este 0 -- -- 33
2019-08-09 20:00:00 24.5 3 Sudoeste 12 Norte 0 -- -- 33
2019-08-09 19:00:00 25.9 4 Norte 9 Norte 0 -- -- 46
2019-08-09 18:00:00 26.5 3 Sudeste 10 Noroeste 0 -- -- 61
2019-08-09 17:00:00 26.4 5 Sudeste 10 Sur 0 -- -- 65
2019-08-09 16:00:00 26.4 6 Sur 13 Sudeste 0 -- -- 65
2019-08-09 15:00:00 26.8 7 Sur 16 Sudeste 0 -- -- 64
2019-08-09 14:00:00 28.9 4 Sudeste 14 Sudeste 0 -- -- 54
2019-08-09 13:00:00 28.2 5 Norte 14 Norte 0 -- -- 27
2019-08-09 12:00:00 25.5 5 Sudeste 13 Sur 0 -- -- 60
2019-08-09 11:00:00 23.8 7 Sudeste 15 Sudeste 0 -- -- 62
2019-08-09 10:00:00 23.6 5 Sudeste 9 Sudeste 0 -- -- 33
2019-08-09 09:00:00 21.3 4 Sur 12 Este 0 -- -- 26
2019-08-09 08:00:00 20.6 10 Este 15 Este 0 -- -- 24
2019-08-09 07:00:00 20.9 7 Sudoeste 13 Sudoeste 0 -- -- 22
2019-08-09 06:00:00 19.4 6 Sudoeste 10 Sudoeste 0 -- -- 32
2019-08-09 05:00:00 20.7 5 Sudoeste 12 Sudoeste 0 -- -- 24
2019-08-09 04:00:00 18.8 6 Sudoeste 10 Sudoeste 0 -- -- 33
2019-08-09 03:00:00 17.5 5 Oeste 8 Sudoeste 0 -- -- 45
2019-08-09 02:00:00 18.9 5 Norte 11 Norte 0 -- -- 40
2019-08-09 01:00:00 18.5 6 Norte 18 Norte 0 -- -- 48
2019-08-09 00:00:00 17.7 10 Norte 14 Norte 0 -- -- 59
2019-08-08 23:00:00 18 3 Norte 10 Norte -- -- -- 96
2019-08-08 22:00:00 18.5 3 Norte 9 Norte 0 -- -- 93
2019-08-08 21:00:00 19.8 2 Sudeste 7 Norte 0 -- -- 87
2019-08-08 20:00:00 22.6 3 Norte 7 Nordeste 0 -- -- 77
2019-08-08 19:00:00 24.5 4 Este 8 Sudeste 0 -- -- 71
2019-08-08 18:00:00 25.9 4 Noroeste 12 Sur 0 -- -- 66
2019-08-08 17:00:00 26.8 5 Sudeste 13 Sudeste 0 -- -- 62
2019-08-08 16:00:00 26.3 5 Sur 17 Sudeste 0 -- -- 62
2019-08-08 15:00:00 26.2 9 Sudeste 16 Sudeste 0 -- -- 63
2019-08-08 14:00:00 26.1 9 Sudeste 15 Sur 0 -- -- 64
2019-08-08 13:00:00 25.1 9 Sudeste 17 Sudeste 0 -- -- 66
2019-08-08 12:00:00 23.5 8 Sur 18 Sudeste 0 -- -- 71
2019-08-08 11:00:00 22.4 4 Sudeste 9 Sudeste 0 -- -- 76
2019-08-08 10:00:00 18.8 4 Norte 9 Norte 0 -- -- 86
2019-08-08 09:00:00 16.4 4 Sudeste 10 Sudeste 0 -- -- 93
2019-08-08 08:00:00 15.1 2 Sudeste 9 Sudoeste 0 -- -- 95
2019-08-08 07:00:00 15.5 3 Sudoeste 8 Este 0 -- -- 95
2019-08-08 06:00:00 15.7 3 Oeste 14 Sur 0 -- -- 94
2019-08-08 05:00:00 15.8 3 Sudoeste 10 Sur 0 -- -- 93
2019-08-08 04:00:00 15.7 5 Sudoeste 10 Sudoeste 0 -- -- 92
2019-08-08 03:00:00 15.7 2 Sur 10 Sudoeste 0 -- -- 89
2019-08-08 02:00:00 16 3 Oeste 10 Sudoeste 0 -- -- 93
2019-08-08 01:00:00 16 4 Oeste 10 Sudoeste 0 -- -- 93
2019-08-08 00:00:00 16.6 3 Oeste 6 Oeste 0 -- -- 94
2019-08-07 23:00:00 17.1 3 Sudeste 9 Este 0 -- -- 92
2019-08-07 22:00:00 17.5 2 Sur 10 Este 0 -- -- 93
2019-08-07 21:00:00 17.7 2 Oeste 12 Este 0 -- -- 90
2019-08-07 20:00:00 19 3 Sudeste 15 Sur 0 -- -- 84
2019-08-07 19:00:00 19.9 5 Sudeste 16 Sudeste 0 -- -- 81
2019-08-07 18:00:00 21.5 4 Sur 18 Sudeste 0 -- -- 75
2019-08-07 17:00:00 22.6 7 Sudeste 21 Este 0 -- -- 71
2019-08-07 16:00:00 22.6 8 Sudeste 22 Sur 0 -- -- 73
2019-08-07 15:00:00 22 8 Sudeste 21 Sudeste 0 -- -- 74
2019-08-07 14:00:00 22.5 9 Sudeste 22 Este 0 -- -- 72
2019-08-07 13:00:00 21.3 8 Sudeste 21 Sudeste 0 -- -- 72
2019-08-07 12:00:00 19.8 6 Este 18 Este 0 -- -- 80
2019-08-07 11:00:00 19.1 5 Este 17 Sudeste 0 -- -- 85
2019-08-07 10:00:00 18.4 5 Este 15 Sudeste 0 -- -- 88
2019-08-07 09:00:00 16.9 4 Sudeste 10 Sudeste 0 -- -- 91
2019-08-07 08:00:00 15.8 5 Sudeste 10 Sudeste 0 -- -- 95
2019-08-07 07:00:00 16.1 2 Este 9 Nordeste 0 -- -- 97
2019-08-07 06:00:00 16.2 4 Este 11 Este 0 -- -- 96
2019-08-07 05:00:00 16.3 3 Sudeste 11 Este 0 -- -- 96
2019-08-07 04:00:00 15.9 4 Sudeste 13 Este 0 -- -- 95
2019-08-07 03:00:00 16 6 Sudeste 20 Sudeste 0 -- -- 94
2019-08-07 02:00:00 16.3 6 Sudeste 19 Sudeste 0 -- -- 97
2019-08-07 01:00:00 16.7 8 Este 18 Este 0 -- -- 99
2019-08-07 00:00:00 16.6 8 Este 22 Nordeste 0 -- -- 98
2019-08-06 23:00:00 16.7 8 Este 22 Este 0 -- -- 98
2019-08-06 22:00:00 16.9 4 Sudeste 22 Nordeste 0 -- -- 97
2019-08-06 21:00:00 17.2 5 Sur 15 Sudeste 0 -- -- 93
2019-08-06 20:00:00 18.5 4 Sudoeste 16 Sudeste 0 -- -- 89
2019-08-06 19:00:00 19.4 5 Sudeste 16 Sudeste 0 -- -- 85
2019-08-06 18:00:00 19.9 5 Sudeste 18 Este 0 -- -- 85
2019-08-06 17:00:00 21.1 5 Este 19 Nordeste 0 -- -- 77
2019-08-06 16:00:00 20.8 6 Este 18 Este 0 -- -- 79
2019-08-06 15:00:00 22.8 5 Sudoeste 20 Sudeste 0 -- -- 67
2019-08-06 14:00:00 21.7 5 Oeste 22 Este 0 -- -- 73
2019-08-06 13:00:00 20.7 7 Nordeste 20 Norte 0 -- -- 73
2019-08-06 12:00:00 19.9 5 Este 18 Nordeste 0 -- -- 79
2019-08-06 11:00:00 18.9 6 Sudeste 17 Sudeste 0 -- -- 88
2019-08-06 10:00:00 17.5 7 Este 24 Sudeste 0 -- -- 92
2019-08-06 09:00:00 16.5 5 Nordeste 17 Nordeste 0 -- -- 98
2019-08-06 08:00:00 15.6 4 Este 15 Sudeste 0 -- -- 99
2019-08-06 07:00:00 16 4 Este 19 Nordeste 0 -- -- 99
2019-08-06 06:00:00 15.5 6 Este 17 Este 0 -- -- 99
2019-08-06 05:00:00 16.2 5 Sudeste 14 Norte 0 -- -- 100
2019-08-06 04:00:00 16.2 4 Sur 17 Sudeste 0 -- -- 99
2019-08-06 03:00:00 16.3 3 Sur 17 Este 0 -- -- 99
2019-08-06 02:00:00 16.4 4 Sur 16 Este 0 -- -- 99
2019-08-06 01:00:00 16.4 5 Sur 18 Nordeste 0 -- -- 99
2019-08-06 00:00:00 16.6 4 Sur 12 Norte 0 -- -- 98
2019-08-05 23:00:00 16.6 4 Sudoeste 18 Este 0 -- -- 98
2019-08-05 22:00:00 17 5 Sur 16 Nordeste 0 -- -- 98
2019-08-05 21:00:00 17.3 4 Sudoeste 23 Este 0 -- -- 96
2019-08-05 20:00:00 17.9 4 Sudoeste 14 Sur 0 -- -- 90
2019-08-05 19:00:00 18.7 4 Sudeste 14 Nordeste 0 -- -- 90
2019-08-05 18:00:00 18.8 6 Este 17 Sudeste 0 -- -- 87
2019-08-05 17:00:00 19.2 5 Este 23 Sudeste 0 -- -- 87
2019-08-05 16:00:00 20.6 6 Sudeste 30 Sudeste 0 -- -- 80
2019-08-05 15:00:00 21.2 5 Nordeste 17 Sur -- -- -- 75
2019-08-05 14:00:00 21.7 6 Este 22 Nordeste 0 -- -- 73
2019-08-05 13:00:00 20.7 5 Este 17 Oeste 0 -- -- 79
2019-08-05 12:00:00 19.4 6 Sudeste 19 Nordeste 0 -- -- 86
2019-08-05 11:00:00 18.2 6 Sudeste 19 Sudeste 0 -- -- 94
2019-08-05 10:00:00 17.8 7 Este 23 Nordeste 0 -- -- 91
2019-08-05 09:00:00 16.7 5 Sudeste 19 Este 0 -- -- 100
2019-08-05 08:00:00 16.2 4 Sudeste 20 Sudeste 0 -- -- 100
2019-08-05 07:00:00 16.1 6 Sudeste 24 Este 0 -- -- 100
2019-08-05 06:00:00 16 8 Este 20 Este 0 -- -- 100
2019-08-05 05:00:00 16.3 6 Este 20 Nordeste 0 -- -- 100
2019-08-05 04:00:00 16.4 5 Sudeste 16 Nordeste 0 -- -- 100
2019-08-05 03:00:00 16.5 7 Este 23 Nordeste 0 -- -- 100
2019-08-05 02:00:00 16.5 4 Sudeste 19 Este 0 -- -- 100
2019-08-05 01:00:00 16.6 7 Este 22 Nordeste 0 -- -- 100
2019-08-05 00:00:00 16 9 Este 23 Este 0 -- -- 99
2019-08-04 23:00:00 16.6 8 Este 22 Este 0 -- -- 99
2019-08-04 22:00:00 16.7 6 Este 22 Sudeste 0 -- -- 98
2019-08-04 21:00:00 16.8 4 Sur 22 Nordeste 0 -- -- 96
2019-08-04 20:00:00 17.8 5 Este 20 Sudeste 0 -- -- 92
2019-08-04 19:00:00 18.4 5 Sudeste 15 Norte 0 -- -- 93
2019-08-04 18:00:00 19.2 5 Sudoeste 21 Nordeste 0 -- -- 88
2019-08-04 17:00:00 20.7 5 Oeste 15 Este 0 -- -- 78
2019-08-04 16:00:00 22.4 5 Sudeste 17 Sudeste 0 -- -- 67
2019-08-04 15:00:00 22.8 7 Sudeste 25 Sudeste 0 -- -- 62
2019-08-04 14:00:00 21.6 6 Este 22 Este 0 -- -- 66
2019-08-04 13:00:00 21.1 6 Sudeste 18 Sudeste 0 -- -- 71
2019-08-04 12:00:00 18.8 8 Sudeste 18 Sur 0 -- -- 82
2019-08-04 11:00:00 18 6 Este 20 Sudeste 0 -- -- 81
2019-08-04 10:00:00 17.8 7 Sudeste 15 Nordeste 0 -- -- 79
2019-08-04 09:00:00 15.8 6 Sudeste 12 Sudeste 0 -- -- 94
2019-08-04 08:00:00 15.2 3 Este 13 Sudeste 0 -- -- 97
2019-08-04 07:00:00 15.2 4 Este 24 Este 0 -- -- 97
2019-08-04 06:00:00 15.2 4 Sur 17 Este 0 -- -- 98
2019-08-04 05:00:00 15 3 Este 17 Este 0 -- -- 97
2019-08-04 04:00:00 15 6 Este 17 Sudeste 0 -- -- 98
2019-08-04 03:00:00 15 8 Sudeste 23 Nordeste 0 -- -- 98
2019-08-04 02:00:00 15.3 6 Este 18 Nordeste 0 -- -- 99
2019-08-04 01:00:00 15.5 3 Sur 17 Este 0 -- -- 98
2019-08-04 00:00:00 15.2 5 Este 17 Este 0 -- -- 97
2019-08-03 23:00:00 15.7 6 Sudeste 15 Sur 0 -- -- 96
2019-08-03 22:00:00 16 4 Sudeste 17 Sudeste 0 -- -- 95
2019-08-03 21:00:00 16.3 5 Este 13 Sur 0 -- -- 94
2019-08-03 20:00:00 17.3 5 Sudoeste 14 Este 0 -- -- 88
2019-08-03 19:00:00 19.4 4 Sudeste 13 Este 0 -- -- 79
2019-08-03 18:00:00 20.5 5 Oeste 14 Nordeste 0 -- -- 76
2019-08-03 17:00:00 20.6 5 Sudoeste 17 Sudoeste 0 -- -- 73
2019-08-03 16:00:00 19.8 5 Oeste 15 Nordeste 0 -- -- 77
2019-08-03 15:00:00 19.4 7 Este 19 Sur 0 -- -- 78
2019-08-03 14:00:00 18.7 6 Este 18 Sudeste 0 -- -- 86
2019-08-03 13:00:00 19.1 5 Sudeste 15 Norte 0 -- -- 82
2019-08-03 12:00:00 17.7 4 Este 15 Este 0 -- -- 87
2019-08-03 11:00:00 16.9 3 Sudoeste 13 Sudeste 0 -- -- 97
2019-08-03 10:00:00 16.1 5 Sudeste 12 Este 0 -- -- 100
2019-08-03 09:00:00 16 5 Sudoeste 12 Sudeste 0 -- -- 99
2019-08-03 08:00:00 15.7 4 Sudoeste 23 Nordeste 0 -- -- 99
2019-08-03 07:00:00 15.3 4 Sudeste 15 Nordeste 0 -- -- 98
2019-08-03 06:00:00 15.4 4 Este 15 Sudeste 0 -- -- 98
2019-08-03 05:00:00 15.7 6 Este 17 Sudeste 0 -- -- 97
2019-08-03 04:00:00 15.7 3 Nordeste 14 Nordeste 0 -- -- 97
2019-08-03 03:00:00 15.7 4 Este 14 Nordeste 0 -- -- 96
2019-08-03 02:00:00 15.7 3 Sur 13 Este 0 -- -- 95
2019-08-03 01:00:00 15.9 6 Sudeste 14 Nordeste 0 -- -- 94
2019-08-03 00:00:00 15.9 3 Sudeste 14 Sudeste 0 -- -- 94
2019-08-02 23:00:00 16 5 Sudeste 11 Sudeste 0 -- -- 94
2019-08-02 22:00:00 16.1 3 Sudeste 13 Este 0 -- -- 94
2019-08-02 21:00:00 16.4 4 Sudeste 12 Este 0 -- -- 93
2019-08-02 20:00:00 16.8 4 Este 14 Sudeste 0 -- -- 92
2019-08-02 19:00:00 17.3 4 Este 13 Sur 0 -- -- 90
2019-08-02 18:00:00 18.4 4 Nordeste 18 Sudeste 0 -- -- 83
2019-08-02 17:00:00 19.2 6 Sudeste 21 Sudeste 0 -- -- 80
2019-08-02 16:00:00 19.1 11 Sudeste 26 Sudeste 0 -- -- 83
2019-08-02 15:00:00 20 9 Sudeste 20 Sudeste 0 -- -- 76
2019-08-02 14:00:00 19 10 Sudeste 20 Sudeste 0 -- -- 81
2019-08-02 13:00:00 18.5 5 Este 16 Sudeste 0 -- -- 84
2019-08-02 12:00:00 18.4 4 Sudeste 22 Sudeste 0 -- -- 84
2019-08-02 11:00:00 17.2 7 Sudeste 19 Este 0 -- -- 89
2019-08-02 10:00:00 16.4 6 Sudeste 14 Sudeste 0 -- -- 89
2019-08-02 09:00:00 15.6 3 Sudeste 14 Sudoeste 0 -- -- 93
2019-08-02 08:00:00 15.2 8 Sudeste 16 Sudeste 0 -- -- 94
2019-08-02 07:00:00 15 9 Sudeste 20 Sudeste 0 -- -- 94
2019-08-02 06:00:00 14.9 4 Sudeste 13 Sudeste 0 -- -- 95
2019-08-02 05:00:00 15 3 Sudeste 12 Este 0 -- -- 95
2019-08-02 04:00:00 15.2 3 Sur 14 Nordeste 0 -- -- 95
2019-08-02 03:00:00 15.4 6 Sudeste 14 Este 0 -- -- 95
2019-08-02 02:00:00 15.3 3 Sudeste 12 Nordeste 0 -- -- 95
2019-08-02 01:00:00 15.5 4 Sudeste 10 Nordeste 0 -- -- 96
2019-08-02 00:00:00 15.6 4 Sur 14 Nordeste 0 -- -- 97
2019-08-01 23:00:00 16 4 Sudoeste 14 Este 0 -- -- 97
2019-08-01 22:00:00 16.1 5 Sudeste 19 Sudeste 0 -- -- 96
2019-08-01 21:00:00 16.4 4 Sudeste 15 Nordeste 0 -- -- 94
2019-08-01 20:00:00 17 3 Este 13 Nordeste 0 -- -- 90
2019-08-01 19:00:00 17.7 5 Sudoeste 16 Nordeste 0 -- -- 89
2019-08-01 18:00:00 20.2 5 Sur 15 Este 0 -- -- 78
2019-08-01 17:00:00 21.5 5 Este 17 Sur 0 -- -- 64
2019-08-01 16:00:00 20.6 5 Nordeste 19 Nordeste 0 -- -- 71
2019-08-01 15:00:00 20.3 6 Sudeste 15 Este 0 -- -- 70
2019-08-01 14:00:00 19.9 5 Sudeste 22 Sudeste 0 -- -- 73
2019-08-01 13:00:00 19.5 7 Sudeste 22 Sudeste 0 -- -- 73
2019-08-01 12:00:00 19.7 11 Sudeste 22 Sudeste 0 -- -- 72
2019-08-01 11:00:00 17.7 7 Sudeste 19 Este 0 -- -- 81
2019-08-01 10:00:00 17.5 10 Sudeste 24 Sudeste 0 -- -- 79
2019-08-01 09:00:00 15.2 5 Sudeste 15 Sudeste 0 -- -- 94
2019-08-01 08:00:00 14.5 6 Sudeste 15 Este 0 -- -- 95
2019-08-01 07:00:00 14.4 3 Este 11 Este 0 -- -- 97
2019-08-01 06:00:00 14.3 5 Este 13 Este 0 -- -- 97
2019-08-01 05:00:00 14.2 3 Sudeste 13 Sudeste 0 -- -- 99
2019-08-01 04:00:00 14.8 4 Sudeste 14 Sudeste 0 -- -- 99
2019-08-01 03:00:00 15 4 Sur 15 Este 0 -- -- 99
2019-08-01 02:00:00 14.7 3 Sudeste 18 Nordeste 0 -- -- 99
2019-08-01 01:00:00 15.4 6 Sudeste 21 Este 0 -- -- 99
2019-08-01 00:00:00 15.3 5 Este 17 Noroeste 0 -- -- 99
2019-07-31 23:00:00 15.3 4 Sur 13 Este 0 -- -- 98
2019-07-31 22:00:00 15.4 5 Sudeste 14 Sur 0 -- -- 97
2019-07-31 21:00:00 15.7 4 Sudoeste 13 Sudeste 0 -- -- 95
2019-07-31 20:00:00 16.3 4 Sudeste 15 Sudeste 0 -- -- 93
2019-07-31 19:00:00 16.9 5 Sur 16 Sudeste 0 -- -- 92
2019-07-31 18:00:00 17.4 4 Sudeste 14 Este 0 -- -- 90
2019-07-31 17:00:00 18.3 6 Sudoeste 16 Sudeste 0 -- -- 85
2019-07-31 16:00:00 18.8 4 Sudoeste 16 Sudeste 0 -- -- 80
2019-07-31 15:00:00 19.3 5 Sudeste 19 Este 0 -- -- 77
2019-07-31 14:00:00 18.2 5 Nordeste 19 Nordeste 0 -- -- 81
2019-07-31 13:00:00 17 5 Sudoeste 17 Este 0 -- -- 90
2019-07-31 12:00:00 16.1 8 Sudeste 17 Sudeste 0 -- -- 91
2019-07-31 11:00:00 16 6 Sudeste 17 Este 0 -- -- 91
2019-07-31 10:00:00 15.1 5 Sur 15 Sudeste 0 -- -- 98
2019-07-31 09:00:00 15 5 Sudeste 14 Este 0 -- -- 99
2019-07-31 08:00:00 14.3 6 Sur 19 Sudeste 0 -- -- 98
2019-07-31 07:00:00 13.4 5 Sur 20 Este 0 -- -- 99
2019-07-31 06:00:00 14.4 8 Este 21 Este 0 -- -- 100
2019-07-31 05:00:00 14.5 8 Sur 22 Este 0 -- -- 100
2019-07-31 04:00:00 14.7 10 Sudeste 22 Sudeste 0 -- -- 100
2019-07-31 03:00:00 13.6 8 Sudoeste 20 Sudoeste 0 -- -- 100
2019-07-31 02:00:00 15 7 Sudeste 26 Sudeste 0 -- -- 100
2019-07-31 01:00:00 14.5 8 Sudeste 21 Nordeste 0 -- -- 100
2019-07-31 00:00:00 15.1 6 Sur 23 Sudeste 0 -- -- 100
2019-07-30 23:00:00 14.9 8 Sur 19 Sudeste 0 -- -- 100
2019-07-30 22:00:00 15.4 9 Sudeste 26 Este 0 -- -- 100
2019-07-30 21:00:00 15.5 6 Sur 17 Sur 0 -- -- 100
2019-07-30 20:00:00 15.8 6 Sur 25 Nordeste 0 -- -- 100
2019-07-30 19:00:00 16 6 Norte 21 Nordeste 0 -- -- 100
2019-07-30 18:00:00 15.8 6 Sudeste 21 Sudeste 0 -- -- 100
2019-07-30 17:00:00 16.3 5 Sur 17 Sudeste 0 -- -- 100
2019-07-30 16:00:00 16.7 7 Sur 26 Sudeste 0 -- -- 100
2019-07-30 15:00:00 16.8 6 Sudoeste 18 Este 0 -- -- 100
2019-07-30 14:00:00 16.7 6 Sudeste 23 Nordeste 0 -- -- 100
2019-07-30 13:00:00 16.4 5 Sudoeste 16 Sudeste 0.2 -- -- 100
2019-07-30 12:00:00 16.3 6 Sudoeste 17 Este 0 -- -- 100
2019-07-30 11:00:00 16.4 9 Sudeste 34 Norte 0.4 -- -- 100
2019-07-30 10:00:00 16.2 8 Oeste 25 Sudeste 0 -- -- 100
2019-07-30 09:00:00 16.3 9 Sur 27 Nordeste 0 -- -- 100
2019-07-30 08:00:00 17 10 Sudeste 29 Sudeste 0 -- -- 100
2019-07-30 07:00:00 16.6 10 Sudeste 31 Sudeste 0 -- -- 100
2019-07-30 06:00:00 16.4 10 Este 28 Este 0 -- -- 100
2019-07-30 05:00:00 16.8 6 Sudeste 22 Este 0 -- -- 100
2019-07-30 04:00:00 16.6 6 Sudeste 18 Nordeste 0 -- -- 100
2019-07-30 03:00:00 16.7 5 Sudeste 23 Este 0 -- -- 100
2019-07-30 02:00:00 16.8 8 Sur 23 Sudeste 0 -- -- 99
2019-07-30 01:00:00 16.4 6 Este 25 Sur 0 -- -- 98
2019-07-30 00:00:00 16.3 8 Este 22 Nordeste 0 -- -- 98
2019-07-29 23:00:00 16.6 6 Sudeste 19 Este 0 -- -- 98
2019-07-29 22:00:00 16.4 5 Sur 20 Sur 0 -- -- 96
2019-07-29 21:00:00 16.6 7 Sudeste 21 Nordeste 0 -- -- 93
2019-07-29 20:00:00 17.9 6 Sudeste 22 Sudeste 0 -- -- 81
2019-07-29 19:00:00 18.7 4 Sudoeste 14 Norte 0 -- -- 86
2019-07-29 18:00:00 19.7 5 Sur 14 Noroeste 0 -- -- 83
2019-07-29 17:00:00 19.4 5 Sudeste 17 Sudeste 0 -- -- 84
2019-07-29 16:00:00 19.7 5 Sudeste 17 Este 0 -- -- 83
2019-07-29 15:00:00 20.1 5 Sudoeste 15 Este 0 -- -- 80
2019-07-29 14:00:00 19.7 6 Sur 17 Sudeste 0 -- -- 78
2019-07-29 13:00:00 19.6 5 Nordeste 19 Nordeste 0 -- -- 77
2019-07-29 12:00:00 17.5 7 Este 22 Este 0 -- -- 92
2019-07-29 11:00:00 16.6 8 Sudeste 17 Este 0 -- -- 97
2019-07-29 10:00:00 16.3 3 Sudeste 15 Sudeste 0 -- -- 94
2019-07-29 09:00:00 15.6 5 Sudoeste 12 Nordeste 0 -- -- 95
2019-07-29 08:00:00 15.1 5 Sudeste 12 Sudeste 0 -- -- 96
2019-07-29 07:00:00 15.2 4 Sur 14 Nordeste 0 -- -- 97
2019-07-29 06:00:00 15.3 4 Sur 9 Sudeste 0 -- -- 98
2019-07-29 05:00:00 15.3 4 Sur 15 Este 0 -- -- 99
2019-07-29 04:00:00 15.9 3 Sudeste 12 Este 0 -- -- 99
2019-07-29 03:00:00 15.7 5 Este 18 Este 0 -- -- 98
2019-07-29 02:00:00 15.7 4 Este 14 Este 0 -- -- 99
2019-07-29 01:00:00 15.8 4 Sudeste 19 Nordeste 0 -- -- 99
2019-07-29 00:00:00 16 6 Sudeste 14 Nordeste 0 -- -- 99
2019-07-28 23:00:00 15.9 5 Este 15 Este 0 -- -- 98
2019-07-28 22:00:00 16.4 4 Sur 14 Este 0 -- -- 98
2019-07-28 21:00:00 17 4 Sudoeste 10 Nordeste 0 -- -- 97
2019-07-28 20:00:00 17.2 3 Este 14 Sudeste 0 -- -- 96
2019-07-28 19:00:00 17.9 5 Sur 15 Nordeste 0 -- -- 94
2019-07-28 18:00:00 18.5 6 Sudeste 18 Nordeste 0 -- -- 95
2019-07-28 17:00:00 19.2 5 Sudeste 16 Este 0 -- -- 94
2019-07-28 16:00:00 20 5 Sudeste 18 Sudeste 0 -- -- 94
2019-07-28 15:00:00 20.4 5 Este 14 Sudeste 0 -- -- 91
2019-07-28 14:00:00 19.2 4 Sudeste 17 Sudeste 0 -- -- 98
2019-07-28 13:00:00 18.6 4 Sur 14 Este 0 -- -- 100
2019-07-28 12:00:00 18 4 Este 16 Sur 0 -- -- 100
2019-07-28 11:00:00 17.2 5 Sudeste 21 Sudeste 0 -- -- 100
2019-07-28 10:00:00 16.4 5 Sudeste 21 Sudeste 0 -- -- 100
2019-07-28 09:00:00 15.9 3 Sur 17 Este 0 -- -- 100
2019-07-28 08:00:00 15.7 7 Este 20 Nordeste 0.2 -- -- 100
2019-07-28 07:00:00 16 5 Sudeste 19 Sudeste 0 -- -- 100
2019-07-28 06:00:00 16.1 4 Sudeste 14 Sudeste 0.4 -- -- 100
2019-07-28 05:00:00 16 5 Nordeste 19 Sudeste 0.2 -- -- 100
2019-07-28 04:00:00 15.6 4 Sudeste 19 Nordeste 0.2 -- -- 100
2019-07-28 03:00:00 15.4 5 Este 18 Nordeste 0 -- -- 99
2019-07-28 02:00:00 15.2 3 Sudeste 18 Nordeste 0 -- -- 98
2019-07-28 01:00:00 15.3 4 Sudeste 14 Este 0 -- -- 98
2019-07-28 00:00:00 15.4 6 Este 17 Nordeste 0 -- -- 98
2019-07-27 23:00:00 15.5 5 Este 12 Sudoeste 0 -- -- 98
2019-07-27 22:00:00 15.7 5 Este 18 Este 0 -- -- 97
2019-07-26 11:00:00 19 4 Oeste 17 Sudeste 0 -- -- 88
2019-07-26 10:00:00 17.6 5 Sudeste 14 Sudeste 0 -- -- 96
2019-07-26 09:00:00 16.9 6 Norte 21 Nordeste 0 -- -- 97
2019-07-26 08:00:00 16.4 5 Sudeste 10 Nordeste 0 -- -- 98
2019-07-26 07:00:00 16.6 4 Sudeste 19 Sudeste 0 -- -- 98
2019-07-26 06:00:00 16.4 6 Este 22 Este 0 -- -- 98
2019-07-26 05:00:00 16.6 4 Sudeste 22 Nordeste 0 -- -- 98
2019-07-26 04:00:00 17.1 3 Sudeste 22 Sudeste 0 -- -- 98
2019-07-26 03:00:00 17.1 8 Este 23 Nordeste 0 -- -- 97
2019-07-26 02:00:00 16.8 4 Sudoeste 11 Sur 0 -- -- 96
2019-07-26 01:00:00 16.6 4 Sudeste 17 Sudeste 0 -- -- 94
2019-07-26 00:00:00 17 5 Sudeste 13 Este 0 -- -- 94
2019-07-25 23:00:00 17.1 4 Oeste 15 Sudeste 0 -- -- 92
2019-07-25 22:00:00 17.4 5 Este 14 Sur 0 -- -- 90
2019-07-25 21:00:00 18.1 4 Este 14 Este 0 -- -- 75
2019-07-25 20:00:00 21.5 4 Sudoeste 15 Norte 0 -- -- 64
2019-07-25 19:00:00 23.6 5 Nordeste 15 Este 0 -- -- 36
2019-07-25 18:00:00 24.4 6 Nordeste 18 Este 0 -- -- 34
2019-07-25 17:00:00 25.1 4 Sur 18 Este 0 -- -- 47
2019-07-25 16:00:00 26.7 7 Sudeste 17 Sur 0 -- -- 41
2019-07-25 15:00:00 26.6 5 Sudeste 17 Sudeste 0 -- -- 37
2019-07-25 14:00:00 25.3 5 Sur 19 Sudeste 0 -- -- 41
2019-07-25 13:00:00 25.1 10 Sudeste 26 Sudeste 0 -- -- 34
2019-07-25 12:00:00 24 9 Sudeste 28 Este 0 -- -- 33
2019-07-25 11:00:00 22.6 8 Sudeste 23 Sudeste 0 -- -- 38
2019-07-25 10:00:00 20.9 7 Este 24 Este 0 -- -- 40
2019-07-25 09:00:00 18.5 8 Sur 22 Sur 0 -- -- 42
2019-07-25 08:00:00 17 5 Sur 18 Este 0 -- -- 42
2019-07-25 07:00:00 16.5 6 Sur 20 Este 0 -- -- 48
2019-07-25 06:00:00 16.4 6 Sudeste 17 Sudeste 0 -- -- 50
2019-07-25 05:00:00 15.9 8 Sudeste 20 Este 0 -- -- 61
2019-07-25 04:00:00 15.5 7 Sudoeste 19 Sudoeste 0 -- -- 70
2019-07-25 03:00:00 15.3 8 Sudeste 21 Nordeste 0 -- -- 79
2019-07-25 02:00:00 15.4 6 Este 23 Nordeste 0 -- -- 76
2019-07-25 01:00:00 15.8 9 Este 20 Este 0 -- -- 79
2019-07-25 00:00:00 16.4 7 Este 19 Nordeste 0 -- -- 80
2019-07-24 23:00:00 16.5 10 Sudeste 23 Sudeste 0 -- -- 75
2019-07-24 22:00:00 16.8 4 Sur 15 Este 0 -- -- 78
2019-07-24 21:00:00 17.7 8 Sur 16 Sudeste 0 -- -- 64
2019-07-24 20:00:00 20.9 6 Noroeste 13 Sur 0 -- -- 57
2019-07-24 19:00:00 22.4 3 Sudeste 13 Este 0 -- -- 70
2019-07-24 18:00:00 23 5 Sudeste 14 Este 0 -- -- 67
2019-07-24 17:00:00 23.2 4 Sudeste 10 Sur 0 -- -- 64
2019-07-24 16:00:00 24.2 5 Sur 14 Sur 0 -- -- 62
2019-07-24 15:00:00 23.6 7 Sur 15 Sur 0 -- -- 66
2019-07-24 14:00:00 21.6 6 Sudeste 13 Sur 0 -- -- 75
2019-07-24 13:00:00 20.7 6 Sur 16 Sudeste 0 -- -- 78
2019-07-24 12:00:00 19.7 5 Sur 16 Sudeste 0 -- -- 82
2019-07-24 11:00:00 17.5 4 Nordeste 9 Oeste 0 -- -- 89
2019-07-24 10:00:00 16.2 4 Sudeste 13 Nordeste 0 -- -- 96
2019-07-24 09:00:00 15.5 4 Sudeste 12 Sur 0 -- -- 98
2019-07-24 08:00:00 14.7 5 Nordeste 11 Nordeste 0 -- -- 99
2019-07-24 07:00:00 14.6 4 Sudeste 11 Este 0 -- -- 98
2019-07-24 06:00:00 14.8 4 Sudeste 19 Nordeste 0 -- -- 99
2019-07-24 05:00:00 15.1 4 Sudeste 14 Este 0 -- -- 99
2019-07-24 04:00:00 15.2 4 Sudoeste 23 Este 0 -- -- 99
2019-07-24 03:00:00 15.2 7 Este 15 Este 0 -- -- 98
2019-07-24 02:00:00 15.4 4 Sur 15 Norte 0 -- -- 98
2019-07-24 01:00:00 15.3 4 Nordeste 19 Este 0 -- -- 97
2019-07-24 00:00:00 15.4 4 Sudeste 16 Sur 0 -- -- 97
2019-07-23 23:00:00 15.5 4 Sur 14 Nordeste 0 -- -- 97
2019-07-23 22:00:00 15.8 5 Sudoeste 15 Este 0 -- -- 97
2019-07-23 21:00:00 15.9 7 Sudoeste 19 Sur 0 -- -- 95
2019-07-23 20:00:00 16.7 4 Sudoeste 14 Este 0 -- -- 92
2019-07-23 19:00:00 17.5 4 Sudoeste 12 Sudeste 0 -- -- 88
2019-07-23 18:00:00 18.3 5 Sur 13 Nordeste 0 -- -- 85
2019-07-23 17:00:00 18.1 5 Este 15 Este 0 -- -- 86
2019-07-23 16:00:00 18.9 5 Noroeste 15 Norte 0 -- -- 81
2019-07-23 15:00:00 19.2 6 Sur 18 Sudeste 0 -- -- 79
2019-07-23 14:00:00 19.5 6 Sur 19 Sudeste 0 -- -- 78
2019-07-23 13:00:00 18.9 6 Sudeste 18 Sudeste 0 -- -- 81
2019-07-23 12:00:00 18.5 5 Nordeste 13 Sur 0 -- -- 82
2019-07-23 11:00:00 17.3 4 Este 16 Sudeste 0 -- -- 87
2019-07-23 10:00:00 15.9 4 Este 15 Sudeste 0 -- -- 91
2019-07-23 09:00:00 14.9 4 Sudeste 15 Este 0 -- -- 97
2019-07-23 08:00:00 14.5 5 Sudoeste 14 Norte 0 -- -- 97
2019-07-23 07:00:00 14.4 5 Sudeste 14 Este 0 -- -- 97
2019-07-23 06:00:00 14.6 4 Sudeste 11 Este 0 -- -- 96
2019-07-23 05:00:00 14.5 4 Sur 12 Norte 0 -- -- 95
2019-07-23 04:00:00 14.7 3 Sudoeste 10 Este 0 -- -- 95
2019-07-23 03:00:00 14.8 5 Sur 14 Nordeste 0 -- -- 95
2019-07-23 02:00:00 14.9 4 Sur 12 Sudeste 0 -- -- 95
2019-07-23 01:00:00 15.1 5 Sudeste 16 Nordeste 0 -- -- 95
2019-07-23 00:00:00 15.2 4 Oeste 19 Este 0 -- -- 94
2019-07-22 23:00:00 15.3 4 Sur 13 Sudoeste 0 -- -- 94
2019-07-22 22:00:00 15.7 5 Sur 15 Este 0 -- -- 95
2019-07-22 21:00:00 15.9 6 Sur 15 Sudeste 0 -- -- 94
2019-07-22 20:00:00 16.5 3 Sur 12 Este 0 -- -- 91
2019-07-22 19:00:00 17.8 3 Sudoeste 15 Nordeste 0 -- -- 86
2019-07-22 18:00:00 19.1 5 Este 15 Nordeste 0 -- -- 80
2019-07-22 17:00:00 20.4 4 Este 18 Sur 0 -- -- 74
2019-07-22 16:00:00 20.2 5 Sudeste 22 Sur 0 -- -- 76
2019-07-22 15:00:00 21.1 5 Sudeste 17 Sudeste 0 -- -- 71
2019-07-22 14:00:00 19.5 5 Norte 14 Sudoeste 0 -- -- 80
2019-07-22 13:00:00 19 5 Nordeste 21 Nordeste 0 -- -- 82
2019-07-22 12:00:00 18 3 Sudoeste 13 Sudeste 0 -- -- 88
2019-07-22 11:00:00 16.5 5 Sur 10 Sur 0 -- -- 97
2019-07-22 10:00:00 15.4 4 Este 15 Sudeste 0 -- -- 99
2019-07-22 09:00:00 15.1 3 Este 12 Nordeste 0 -- -- 100
2019-07-22 08:00:00 15 3 Este 12 Sudeste 0 -- -- 100
2019-07-22 07:00:00 14.9 4 Sudeste 14 Este 0 -- -- 100
2019-07-22 06:00:00 14.8 3 Sudeste 12 Sudeste 0 -- -- 99
2019-07-22 05:00:00 15.3 4 Sudeste 9 Sudeste 0 -- -- 99
2019-07-22 04:00:00 15.1 3 Sur 13 Sudeste 0 -- -- 99
2019-07-22 03:00:00 15.4 5 Sudeste 11 Sudeste 0 -- -- 99
2019-07-22 02:00:00 15.6 3 Sudeste 11 Este 0 -- -- 99
2019-07-22 01:00:00 15.7 3 Sur 10 Este 0 -- -- 98
2019-07-22 00:00:00 16.1 4 Sudeste 13 Sur 0 -- -- 98
2019-07-21 23:00:00 16.2 5 Sudeste 17 Sudeste 0 -- -- 97
2019-07-21 22:00:00 16.2 8 Sudeste 19 Sudeste 0 -- -- 96
2019-07-21 21:00:00 16.5 8 Sudeste 15 Este 0 -- -- 93
2019-07-21 20:00:00 17.1 6 Sudeste 15 Sudeste 0 -- -- 91
2019-07-21 19:00:00 17.7 5 Sudeste 14 Sudeste 0 -- -- 90
2019-07-21 18:00:00 18 4 Sur 17 Sudeste 0 -- -- 90
2019-07-21 17:00:00 18 4 Sur 13 Sudeste 0 -- -- 89
2019-07-21 16:00:00 18.5 5 Nordeste 14 Sudeste 0.2 -- -- 86
2019-07-21 15:00:00 18.7 5 Sur 16 Sudeste 0 -- -- 83
2019-07-21 14:00:00 18 4 Este 18 Sudeste 0 -- -- 88
2019-07-21 13:00:00 17.8 5 Este 15 Sudeste 0 -- -- 91
2019-07-21 12:00:00 17.3 4 Sudeste 15 Sudeste 0 -- -- 95
2019-07-21 11:00:00 16.1 4 Sudeste 11 Sudeste 0 -- -- 100
2019-07-21 10:00:00 15.6 6 Sudeste 13 Sudeste 0 -- -- 100
2019-07-21 09:00:00 15.4 4 Sudeste 14 Nordeste 0 -- -- 100
2019-07-21 08:00:00 15.3 3 Sudeste 10 Norte 0 -- -- 100
2019-07-21 07:00:00 15.4 5 Sudeste 14 Este 0 -- -- 100
2019-07-21 06:00:00 15.4 6 Sudeste 17 Sudeste 0 -- -- 100
2019-07-21 05:00:00 16 5 Sur 17 Sudeste 0 -- -- 100
2019-07-21 04:00:00 15.8 5 Sudeste 15 Este 0 -- -- 100
2019-07-21 03:00:00 16 5 Sudeste 19 Sudeste 0 -- -- 100
2019-07-21 02:00:00 16 7 Este 19 Nordeste 0 -- -- 100
2019-07-21 01:00:00 15.9 4 Este 19 Este 0 -- -- 99
2019-07-21 00:00:00 16.4 6 Este 28 Sudeste 0 -- -- 100